createdAt,value
2023-05-05T00:02:19.693Z,11.90
2023-05-05T00:04:47.928Z,11.86
2023-05-05T00:07:15.701Z,11.85
2023-05-05T00:09:43.994Z,11.74
2023-05-05T00:12:12.926Z,11.76
2023-05-05T00:14:40.680Z,11.73
2023-05-05T00:17:08.449Z,11.68
2023-05-05T00:19:38.072Z,11.68
2023-05-05T00:22:06.001Z,11.63
2023-05-05T00:24:33.781Z,11.56
2023-05-05T00:27:02.547Z,11.52
2023-05-05T00:29:30.488Z,11.43
2023-05-05T00:31:58.265Z,11.33
2023-05-05T00:34:27.161Z,11.35
2023-05-05T00:36:56.278Z,11.31
2023-05-05T00:39:24.254Z,11.29
2023-05-05T00:41:54.569Z,11.28
2023-05-05T00:44:37.153Z,11.27
2023-05-05T00:47:05.513Z,11.23
2023-05-05T00:49:34.675Z,11.25
2023-05-05T00:52:05.539Z,11.21
2023-05-05T00:54:34.498Z,11.18
2023-05-05T00:57:02.844Z,11.16
2023-05-05T00:59:32.007Z,11.15
2023-05-05T01:01:59.904Z,11.14
2023-05-05T01:04:28.272Z,11.11
2023-05-05T01:07:10.060Z,11.15
2023-05-05T01:09:45.639Z,11.11
2023-05-05T01:12:25.693Z,11.16
2023-05-05T01:15:02.881Z,11.19
2023-05-05T01:17:38.826Z,11.16
2023-05-05T01:20:17.202Z,11.16
2023-05-05T01:22:52.574Z,11.14
2023-05-05T01:25:37.035Z,11.12
2023-05-05T01:28:29.113Z,11.11
2023-05-05T01:31:24.938Z,11.00
2023-05-05T01:34:02.004Z,10.97
2023-05-05T01:36:35.774Z,10.87
2023-05-05T01:39:06.175Z,10.84
2023-05-05T01:41:41.000Z,10.83
2023-05-05T01:44:11.709Z,10.82
2023-05-05T01:46:39.330Z,10.78
2023-05-05T01:49:10.969Z,10.75
2023-05-05T01:51:40.730Z,10.70
2023-05-05T01:54:09.762Z,10.69
2023-05-05T01:56:41.006Z,10.66
2023-05-05T01:59:09.927Z,10.55
2023-05-05T02:01:44.996Z,10.41
2023-05-05T02:04:15.317Z,10.36
2023-05-05T02:06:46.717Z,10.35
2023-05-05T02:09:16.021Z,10.30
2023-05-05T02:11:44.369Z,10.29
2023-05-05T02:14:13.815Z,10.26
2023-05-05T02:16:43.374Z,10.23
2023-05-05T02:19:12.508Z,10.15
2023-05-05T02:21:42.470Z,10.14
2023-05-05T02:24:10.442Z,10.09
2023-05-05T02:26:41.087Z,10.06
2023-05-05T02:29:15.329Z,10.07
2023-05-05T02:31:46.736Z,10.10
2023-05-05T02:34:17.927Z,10.11
2023-05-05T02:36:48.779Z,10.08
2023-05-05T02:39:29.280Z,10.03
2023-05-05T02:42:00.233Z,10.03
2023-05-05T02:44:30.930Z,9.99
2023-05-05T02:46:59.473Z,9.95
2023-05-05T02:49:27.271Z,9.97
2023-05-05T02:51:58.418Z,9.93
2023-05-05T02:54:26.309Z,9.91
2023-05-05T02:56:56.288Z,9.95
2023-05-05T02:59:32.974Z,9.96
2023-05-05T03:02:12.105Z,9.99
2023-05-05T03:04:42.847Z,9.97
2023-05-05T03:07:16.598Z,9.93
2023-05-05T03:09:48.499Z,9.95
2023-05-05T03:12:22.212Z,9.93
2023-05-05T03:14:52.660Z,9.96
2023-05-05T03:17:22.978Z,9.98
2023-05-05T03:19:52.136Z,9.92
2023-05-05T03:22:21.530Z,9.85
2023-05-05T03:24:52.662Z,9.87
2023-05-05T03:27:21.181Z,9.90
2023-05-05T03:29:48.931Z,9.92
2023-05-05T03:32:17.447Z,9.89
2023-05-05T03:34:45.169Z,9.86
2023-05-05T03:37:12.814Z,9.89
2023-05-05T03:39:42.221Z,9.82
2023-05-05T03:42:09.945Z,9.81
2023-05-05T03:44:37.639Z,9.76
2023-05-05T03:47:06.822Z,9.75
2023-05-05T03:49:34.629Z,9.69
2023-05-05T03:52:02.764Z,9.63
2023-05-05T03:54:31.587Z,9.68
2023-05-05T03:57:00.595Z,9.77
2023-05-05T03:59:28.744Z,9.77
2023-05-05T04:01:57.100Z,9.82
2023-05-05T04:04:24.974Z,9.84
2023-05-05T04:06:53.876Z,9.90
2023-05-05T04:09:21.603Z,9.94
2023-05-05T04:11:49.331Z,9.96
2023-05-05T04:14:18.816Z,10.01
2023-05-05T04:16:46.506Z,10.06
2023-05-05T04:19:14.163Z,10.04
2023-05-05T04:21:42.226Z,10.09
2023-05-05T04:24:10.281Z,10.14
2023-05-05T04:26:37.982Z,10.21
2023-05-05T04:29:07.012Z,10.22
2023-05-05T04:31:36.165Z,10.21
2023-05-05T04:34:04.429Z,10.22
2023-05-05T04:36:32.121Z,10.23
2023-05-05T04:38:59.879Z,10.26
2023-05-05T04:41:30.026Z,10.30
2023-05-05T04:43:57.932Z,10.40
2023-05-05T04:46:26.209Z,10.48
2023-05-05T04:48:56.485Z,10.47
2023-05-05T04:51:24.536Z,10.42
2023-05-05T04:53:52.226Z,10.44
2023-05-05T04:56:20.341Z,10.50
2023-05-05T04:58:48.065Z,10.50
2023-05-05T05:01:16.187Z,10.59
2023-05-05T05:03:44.066Z,10.47
2023-05-05T05:06:14.393Z,10.51
2023-05-05T05:08:42.306Z,10.51
2023-05-05T05:11:10.238Z,10.56
2023-05-05T05:13:38.317Z,10.64
2023-05-05T05:16:07.637Z,10.60
2023-05-05T05:18:36.615Z,10.63
2023-05-05T05:21:04.649Z,10.63
2023-05-05T05:23:33.760Z,10.61
2023-05-05T05:26:02.410Z,10.69
2023-05-05T05:28:30.523Z,10.71
2023-05-05T05:30:58.912Z,10.78
2023-05-05T05:33:26.626Z,10.90
2023-05-05T05:35:54.586Z,10.88
2023-05-05T05:38:22.340Z,10.98
2023-05-05T05:40:51.320Z,10.90
2023-05-05T05:43:19.325Z,10.94
2023-05-05T05:45:47.222Z,10.99
2023-05-05T05:48:16.241Z,10.96
2023-05-05T05:50:43.869Z,11.00
2023-05-05T05:53:11.977Z,11.09
2023-05-05T05:55:39.618Z,11.15
2023-05-05T05:58:09.094Z,11.16
2023-05-05T06:00:36.790Z,11.22
2023-05-05T06:03:05.067Z,11.22
2023-05-05T06:05:33.579Z,11.13
2023-05-05T06:08:02.292Z,11.17
2023-05-05T06:10:31.498Z,11.16
2023-05-05T06:12:59.332Z,11.24
2023-05-05T06:15:28.796Z,11.42
2023-05-05T06:17:56.592Z,11.49
2023-05-05T06:20:24.807Z,11.55
2023-05-05T06:22:52.788Z,11.56
2023-05-05T06:25:20.482Z,11.56
2023-05-05T06:27:49.259Z,11.59
2023-05-05T06:30:17.710Z,11.65
2023-05-05T06:32:47.179Z,11.66
2023-05-05T06:35:14.917Z,11.67
2023-05-05T06:37:44.000Z,11.74
2023-05-05T06:40:12.649Z,11.86
2023-05-05T06:42:40.321Z,11.81
2023-05-05T06:45:09.183Z,11.84
2023-05-05T06:47:38.759Z,11.94
2023-05-05T06:50:10.489Z,12.00
2023-05-05T06:52:38.690Z,12.01
2023-05-05T06:55:07.338Z,12.09
2023-05-05T06:57:35.069Z,12.06
2023-05-05T07:00:06.143Z,12.04
2023-05-05T07:02:34.129Z,12.08
2023-05-05T07:05:01.905Z,12.13
2023-05-05T07:07:33.416Z,12.26
2023-05-05T07:10:01.305Z,12.29
2023-05-05T07:12:31.378Z,12.38
2023-05-05T07:14:59.968Z,12.52
2023-05-05T07:17:28.392Z,12.58
2023-05-05T07:19:56.108Z,12.66
2023-05-05T07:22:24.379Z,12.68
2023-05-05T07:24:53.827Z,12.74
2023-05-05T07:27:23.588Z,12.80
2023-05-05T07:29:51.396Z,12.88
2023-05-05T07:32:19.539Z,12.83
2023-05-05T07:34:47.252Z,12.79
2023-05-05T07:37:14.920Z,12.81
2023-05-05T07:39:43.360Z,12.84
2023-05-05T07:42:12.493Z,12.91
2023-05-05T07:44:40.242Z,13.00
2023-05-05T07:47:09.077Z,12.99
2023-05-05T07:49:36.807Z,13.11
2023-05-05T07:52:04.899Z,13.16
2023-05-05T07:54:33.699Z,13.15
2023-05-05T07:57:01.788Z,13.23
2023-05-05T07:59:30.991Z,13.34
2023-05-05T08:01:59.147Z,13.42
2023-05-05T08:04:26.967Z,13.47
2023-05-05T08:06:54.723Z,13.52
2023-05-05T08:09:23.613Z,13.69
2023-05-05T08:11:51.629Z,13.74
2023-05-05T08:14:19.695Z,13.88
2023-05-05T08:16:48.828Z,13.91
2023-05-05T08:19:28.318Z,14.00
2023-05-05T08:21:58.873Z,14.23
2023-05-05T08:24:27.800Z,14.47
2023-05-05T08:26:56.641Z,14.57
2023-05-05T08:29:25.351Z,14.71
2023-05-05T08:31:55.779Z,14.73
2023-05-05T08:34:23.840Z,14.87
2023-05-05T08:36:51.920Z,14.91
2023-05-05T08:39:20.033Z,15.07
2023-05-05T08:41:47.795Z,15.14
2023-05-05T08:44:15.652Z,15.46
2023-05-05T08:46:44.495Z,15.59
2023-05-05T08:49:16.750Z,15.68
2023-05-05T08:51:47.031Z,15.77
2023-05-05T08:54:18.217Z,15.81
2023-05-05T08:56:48.470Z,15.98
2023-05-05T08:59:16.915Z,16.18
2023-05-05T09:01:45.825Z,16.29
2023-05-05T09:04:15.771Z,16.44
2023-05-05T09:06:43.455Z,16.46
2023-05-05T09:09:11.668Z,16.45
2023-05-05T09:11:41.816Z,16.56
2023-05-05T09:14:09.494Z,16.67
2023-05-05T09:16:37.646Z,16.75
2023-05-05T09:19:06.144Z,16.97
2023-05-05T09:21:35.139Z,17.08
2023-05-05T09:24:10.287Z,17.14
2023-05-05T09:26:39.871Z,17.23
2023-05-05T09:29:07.740Z,17.42
2023-05-05T09:31:38.395Z,17.39
2023-05-05T09:34:15.447Z,17.47
2023-05-05T09:36:48.166Z,17.57
2023-05-05T09:39:17.897Z,17.65
2023-05-05T09:41:46.820Z,17.72
2023-05-05T09:44:17.483Z,17.84
2023-05-05T09:46:52.977Z,17.99
2023-05-05T09:49:24.507Z,18.19
2023-05-05T09:51:54.465Z,18.37
2023-05-05T09:54:26.784Z,18.45
2023-05-05T09:56:55.166Z,18.43
2023-05-05T09:59:23.693Z,18.42
2023-05-05T10:01:52.765Z,18.56
2023-05-05T10:04:25.314Z,18.57
2023-05-05T10:06:55.878Z,18.63
2023-05-05T10:09:23.419Z,18.78
2023-05-05T10:11:51.587Z,18.82
2023-05-05T10:14:21.267Z,18.82
2023-05-05T10:16:50.827Z,19.00
2023-05-05T10:19:19.983Z,19.04
2023-05-05T10:21:50.389Z,19.15
2023-05-05T10:24:25.752Z,19.22
2023-05-05T10:26:54.862Z,19.17
2023-05-05T10:29:32.368Z,19.11
2023-05-05T10:32:21.448Z,19.08
2023-05-05T10:34:54.664Z,18.82
2023-05-05T10:37:22.883Z,18.87
2023-05-05T10:39:53.768Z,18.77
2023-05-05T10:42:23.839Z,18.80
2023-05-05T10:44:51.625Z,19.03
2023-05-05T10:47:21.295Z,19.35
2023-05-05T10:49:57.337Z,19.51
2023-05-05T10:52:39.270Z,19.59
2023-05-05T10:55:15.204Z,19.85
2023-05-05T10:57:45.203Z,20.01
2023-05-05T11:00:52.449Z,20.02
2023-05-05T11:03:24.228Z,20.08
2023-05-05T11:06:12.855Z,20.17
2023-05-05T11:08:42.284Z,20.28
2023-05-05T11:11:13.330Z,20.37
2023-05-05T11:13:41.872Z,20.34
2023-05-05T11:16:45.100Z,20.38
2023-05-05T11:19:47.224Z,20.61
2023-05-05T11:22:16.404Z,20.60
2023-05-05T11:24:45.155Z,20.71
2023-05-05T11:27:14.204Z,20.76
2023-05-05T11:30:07.808Z,20.77
2023-05-05T11:32:36.008Z,20.77
2023-05-05T11:35:04.058Z,20.67
2023-05-05T11:37:32.191Z,20.61
2023-05-05T11:40:08.677Z,20.43
2023-05-05T11:42:38.660Z,20.34
2023-05-05T11:45:21.715Z,20.26
2023-05-05T11:47:50.049Z,20.29
2023-05-05T11:50:19.890Z,20.20
2023-05-05T11:52:48.567Z,20.12
2023-05-05T11:55:24.305Z,20.07
2023-05-05T11:57:53.806Z,19.95
2023-05-05T12:00:32.060Z,20.00
2023-05-05T12:03:00.282Z,20.16
2023-05-05T12:05:28.164Z,20.15
2023-05-05T12:07:59.940Z,20.17
2023-05-05T12:10:29.809Z,20.23
2023-05-05T12:12:59.316Z,20.39
2023-05-05T12:15:31.629Z,20.46
2023-05-05T12:18:02.148Z,20.58
2023-05-05T12:20:32.710Z,20.71
2023-05-05T12:23:01.807Z,20.83
2023-05-05T12:25:37.136Z,20.92
2023-05-05T12:28:07.077Z,21.00
2023-05-05T12:30:35.536Z,21.03
2023-05-05T12:33:05.334Z,21.09
2023-05-05T12:35:34.629Z,21.08
2023-05-05T12:38:02.506Z,21.08
2023-05-05T12:40:47.715Z,21.30
2023-05-05T12:43:31.077Z,21.36
2023-05-05T12:46:07.240Z,21.27
2023-05-05T12:48:36.111Z,21.41
2023-05-05T12:51:19.446Z,21.46
2023-05-05T12:53:47.876Z,21.49
2023-05-05T12:56:35.583Z,21.58
2023-05-05T12:59:06.924Z,21.70
2023-05-05T13:01:35.656Z,21.82
2023-05-05T13:04:09.008Z,21.80
2023-05-05T13:06:37.751Z,21.74
2023-05-05T13:09:06.056Z,21.87
2023-05-05T13:11:37.856Z,21.92
2023-05-05T13:14:08.316Z,21.99
2023-05-05T13:16:35.916Z,21.95
2023-05-05T13:19:03.890Z,22.09
2023-05-05T13:21:31.629Z,22.04
2023-05-05T13:24:18.297Z,22.07
2023-05-05T13:26:47.662Z,22.12
2023-05-05T13:29:17.865Z,22.19
2023-05-05T13:31:49.290Z,22.18
2023-05-05T13:34:17.711Z,22.10
2023-05-05T13:36:45.393Z,22.18
2023-05-05T13:39:13.463Z,22.25
2023-05-05T13:41:41.579Z,22.32
2023-05-05T13:44:09.230Z,22.33
2023-05-05T13:46:38.334Z,22.30
2023-05-05T13:49:06.466Z,22.29
2023-05-05T13:51:34.863Z,22.26
2023-05-05T13:54:02.939Z,22.19
2023-05-05T13:56:31.202Z,22.30
2023-05-05T13:58:58.929Z,22.23
2023-05-05T14:01:27.297Z,22.16
2023-05-05T14:03:57.582Z,21.95
2023-05-05T14:06:25.863Z,22.02
2023-05-05T14:08:54.035Z,22.03
2023-05-05T14:11:21.688Z,22.10
2023-05-05T14:13:49.625Z,22.14
2023-05-05T14:16:18.157Z,22.17
2023-05-05T14:18:45.915Z,22.22
2023-05-05T14:21:15.538Z,22.15
2023-05-05T14:23:43.244Z,22.20
2023-05-05T14:26:10.927Z,22.19
2023-05-05T14:28:38.676Z,22.14
2023-05-05T14:31:07.719Z,22.02
2023-05-05T14:33:35.437Z,22.08
2023-05-05T14:36:03.694Z,22.07
2023-05-05T14:38:32.799Z,22.03
2023-05-05T14:41:00.473Z,22.03
2023-05-05T14:43:28.502Z,21.92
2023-05-05T14:45:58.217Z,21.81
2023-05-05T14:48:26.018Z,21.77
2023-05-05T14:50:54.764Z,21.84
2023-05-05T14:53:22.467Z,21.77
2023-05-05T14:55:51.935Z,21.83
2023-05-05T14:58:22.380Z,21.76
2023-05-05T15:00:49.888Z,21.64
2023-05-05T15:03:17.937Z,21.49
2023-05-05T15:05:45.597Z,21.42
2023-05-05T15:08:14.757Z,21.29
2023-05-05T15:10:42.438Z,21.23
2023-05-05T15:13:11.527Z,21.09
2023-05-05T15:15:39.788Z,20.91
2023-05-05T15:18:07.577Z,20.81
2023-05-05T15:20:35.532Z,20.76
2023-05-05T15:23:04.332Z,20.77
2023-05-05T15:25:32.101Z,20.82
2023-05-05T15:28:00.733Z,20.83
2023-05-05T15:30:30.022Z,20.78
2023-05-05T15:32:57.782Z,20.76
2023-05-05T15:35:25.830Z,20.78
2023-05-05T15:37:54.712Z,20.74
2023-05-05T15:40:22.718Z,20.74
2023-05-05T15:42:50.689Z,20.74
2023-05-05T15:45:18.619Z,20.68
2023-05-05T15:47:47.924Z,20.70
2023-05-05T15:50:16.253Z,20.53
2023-05-05T15:52:43.876Z,20.52
2023-05-05T15:55:11.757Z,20.58
2023-05-05T15:57:40.694Z,20.57
2023-05-05T16:00:09.485Z,20.34
2023-05-05T16:02:37.650Z,20.22
2023-05-05T16:05:07.425Z,20.12
2023-05-05T16:07:35.594Z,20.07
2023-05-05T16:10:03.467Z,20.01
2023-05-05T16:12:31.755Z,19.95
2023-05-05T16:14:59.675Z,19.95
2023-05-05T16:17:27.679Z,19.78
2023-05-05T16:19:55.827Z,19.74
2023-05-05T16:22:25.161Z,19.66
2023-05-05T16:24:52.774Z,19.67
2023-05-05T16:27:20.412Z,19.67
2023-05-05T16:29:48.359Z,19.49
2023-05-05T16:32:16.013Z,19.48
2023-05-05T16:34:45.238Z,19.50
2023-05-05T16:37:13.272Z,19.42
2023-05-05T16:39:42.515Z,19.35
2023-05-05T16:42:10.514Z,19.37
2023-05-05T16:44:38.201Z,19.24
2023-05-05T16:47:06.515Z,19.18
2023-05-05T16:49:34.146Z,19.09
2023-05-05T16:52:01.822Z,19.12
2023-05-05T16:54:29.829Z,19.13
2023-05-05T16:56:58.790Z,19.07
2023-05-05T16:59:26.787Z,19.09
2023-05-05T17:01:54.517Z,19.10
2023-05-05T17:04:22.528Z,19.01
2023-05-05T17:06:50.788Z,18.98
2023-05-05T17:09:18.667Z,18.91
2023-05-05T17:11:46.320Z,18.77
2023-05-05T17:14:16.582Z,18.68
2023-05-05T17:16:44.273Z,18.70
2023-05-05T17:19:11.968Z,18.70
2023-05-05T17:21:39.988Z,18.61
2023-05-05T17:24:08.669Z,18.59
2023-05-05T17:26:36.411Z,18.62
2023-05-05T17:29:04.439Z,18.54
2023-05-05T17:31:33.579Z,18.42
2023-05-05T17:34:01.631Z,18.40
2023-05-05T17:36:29.321Z,18.33
2023-05-05T17:38:57.331Z,18.39
2023-05-05T17:41:25.499Z,18.30
2023-05-05T17:43:53.428Z,18.27
2023-05-05T17:46:21.656Z,18.21
2023-05-05T17:48:51.083Z,18.12
2023-05-05T17:51:18.847Z,18.01
2023-05-05T17:53:46.877Z,18.02
2023-05-05T17:56:14.930Z,17.88
2023-05-05T17:58:42.569Z,17.87
2023-05-05T18:01:13.696Z,17.81
2023-05-05T18:03:41.965Z,17.91
2023-05-05T18:06:11.329Z,17.81
2023-05-05T18:08:38.982Z,17.76
2023-05-05T18:11:07.132Z,17.61
2023-05-05T18:13:34.859Z,17.61
2023-05-05T18:16:02.865Z,17.53
2023-05-05T18:18:31.115Z,17.48
2023-05-05T18:20:58.735Z,17.53
2023-05-05T18:23:27.785Z,17.41
2023-05-05T18:25:55.458Z,17.41
2023-05-05T18:28:23.204Z,17.25
2023-05-05T18:30:51.131Z,17.20
2023-05-05T18:33:20.131Z,17.17
2023-05-05T18:35:48.091Z,17.14
2023-05-05T18:38:15.709Z,17.12
2023-05-05T18:40:46.173Z,17.09
2023-05-05T18:43:13.712Z,17.01
2023-05-05T18:45:41.790Z,17.00
2023-05-05T18:48:09.929Z,16.91
2023-05-05T18:50:38.068Z,16.81
2023-05-05T18:53:05.922Z,16.69
2023-05-05T18:55:33.938Z,16.78
2023-05-05T18:58:02.962Z,16.75
2023-05-05T19:00:30.728Z,16.75
2023-05-05T19:02:58.908Z,16.76
2023-05-05T19:05:27.652Z,16.60
2023-05-05T19:07:55.327Z,16.60
2023-05-05T19:10:23.679Z,16.49
2023-05-05T19:12:51.398Z,16.55
2023-05-05T19:15:21.198Z,16.55
2023-05-05T19:17:48.913Z,16.35
2023-05-05T19:20:16.638Z,16.34
2023-05-05T19:22:44.779Z,16.38
2023-05-05T19:25:14.224Z,16.37
2023-05-05T19:27:42.757Z,16.30
2023-05-05T19:30:11.569Z,16.39
2023-05-05T19:32:40.590Z,16.32
2023-05-05T19:35:11.558Z,16.18
2023-05-05T19:37:39.978Z,16.16
2023-05-05T19:40:09.072Z,16.12
2023-05-05T19:42:37.289Z,16.04
2023-05-05T19:45:05.654Z,16.06
2023-05-05T19:47:33.389Z,16.02
2023-05-05T19:50:02.815Z,15.95
2023-05-05T19:52:30.465Z,15.93
2023-05-05T19:54:58.470Z,15.85
2023-05-05T19:57:26.685Z,15.87
2023-05-05T19:59:54.363Z,15.79
2023-05-05T20:02:24.374Z,15.71
2023-05-05T20:04:52.026Z,15.69
2023-05-05T20:07:21.450Z,15.69
2023-05-05T20:09:49.840Z,15.57
2023-05-05T20:12:20.223Z,15.54
2023-05-05T20:14:47.967Z,15.56
2023-05-05T20:17:20.269Z,15.57
2023-05-05T20:19:48.433Z,15.49
2023-05-05T20:22:16.607Z,15.43
2023-05-05T20:24:45.690Z,15.36
2023-05-05T20:27:13.324Z,15.33
2023-05-05T20:29:41.305Z,15.24
2023-05-05T20:32:08.998Z,15.27
2023-05-05T20:34:38.540Z,15.22
2023-05-05T20:37:06.244Z,15.16
2023-05-05T20:39:33.934Z,15.10
2023-05-05T20:42:03.612Z,15.10
2023-05-05T20:44:31.798Z,15.07
2023-05-05T20:46:59.521Z,14.99
2023-05-05T20:49:27.544Z,14.93
2023-05-05T20:51:55.297Z,15.00
2023-05-05T20:54:22.911Z,14.97
2023-05-05T20:56:51.723Z,14.86
2023-05-05T20:59:20.660Z,14.80
2023-05-05T21:01:48.724Z,14.81
2023-05-05T21:04:16.479Z,14.76
2023-05-05T21:06:44.424Z,14.75
2023-05-05T21:09:12.083Z,14.76
2023-05-05T21:11:39.753Z,14.78
2023-05-05T21:14:08.467Z,14.75
2023-05-05T21:16:37.581Z,14.72
2023-05-05T21:19:05.658Z,14.70
2023-05-05T21:21:33.755Z,14.69
2023-05-05T21:24:02.005Z,14.70
2023-05-05T21:26:29.713Z,14.62
2023-05-05T21:28:57.829Z,14.60
2023-05-05T21:31:25.491Z,14.62
2023-05-05T21:33:54.605Z,14.56
2023-05-05T21:36:22.907Z,14.54
2023-05-05T21:38:50.665Z,14.60
2023-05-05T21:41:18.762Z,14.59
2023-05-05T21:43:46.485Z,14.55
2023-05-05T21:46:14.426Z,14.62
2023-05-05T21:48:42.564Z,14.49
2023-05-05T21:51:11.587Z,14.41
2023-05-05T21:53:40.932Z,14.39
2023-05-05T21:56:10.240Z,14.39
2023-05-05T21:58:38.412Z,14.38
2023-05-05T22:01:06.164Z,14.30
2023-05-05T22:03:35.273Z,14.29
2023-05-05T22:06:03.861Z,14.25
2023-05-05T22:08:32.867Z,14.30
2023-05-05T22:11:00.972Z,14.31
2023-05-05T22:13:28.718Z,14.32
2023-05-05T22:15:57.448Z,14.17
2023-05-05T22:18:25.121Z,14.10
2023-05-05T22:20:52.977Z,14.09
2023-05-05T22:23:21.129Z,14.05
2023-05-05T22:25:50.400Z,14.12
2023-05-05T22:28:18.501Z,14.14
2023-05-05T22:30:46.352Z,14.10
2023-05-05T22:33:14.145Z,13.99
2023-05-05T22:35:42.978Z,13.95
2023-05-05T22:38:10.639Z,13.88
2023-05-05T22:40:38.329Z,13.94
2023-05-05T22:43:07.873Z,13.87
2023-05-05T22:45:35.746Z,13.87
2023-05-05T22:48:04.093Z,13.87
2023-05-05T22:50:31.873Z,13.80
2023-05-05T22:52:59.626Z,13.84
2023-05-05T22:55:28.573Z,13.80
2023-05-05T22:57:56.314Z,13.75
2023-05-05T23:00:25.993Z,13.73
2023-05-05T23:02:53.660Z,13.66
2023-05-05T23:05:21.586Z,13.60
2023-05-05T23:07:49.606Z,13.50
2023-05-05T23:10:17.388Z,13.44
2023-05-05T23:12:45.435Z,13.43
2023-05-05T23:15:13.302Z,13.38
2023-05-05T23:17:43.604Z,13.28
2023-05-05T23:20:13.164Z,13.26
2023-05-05T23:22:40.914Z,13.19
2023-05-05T23:25:10.125Z,13.20
2023-05-05T23:27:39.466Z,13.16
2023-05-05T23:30:08.847Z,13.20
2023-05-05T23:32:36.653Z,13.21
2023-05-05T23:35:07.831Z,13.18
2023-05-05T23:37:35.840Z,13.15
2023-05-05T23:40:03.579Z,13.12
2023-05-05T23:42:31.649Z,13.11
2023-05-05T23:44:59.366Z,13.12
2023-05-05T23:47:27.151Z,13.06
2023-05-05T23:49:55.193Z,12.96
2023-05-05T23:52:24.249Z,12.89
2023-05-05T23:54:51.919Z,12.77
2023-05-05T23:57:19.886Z,12.73
2023-05-05T23:59:48.021Z,12.59
